createdAt,value
2018-03-14T00:00:33.188Z,5.15
2018-03-14T00:03:01.445Z,5.36
2018-03-14T00:05:30.477Z,5.32
2018-03-14T00:07:58.734Z,5.10
2018-03-14T00:10:27.019Z,5.37
2018-03-14T00:12:55.276Z,5.39
2018-03-14T00:15:23.549Z,5.39
2018-03-14T00:17:51.808Z,5.43
2018-03-14T00:20:20.828Z,5.56
2018-03-14T00:22:49.116Z,5.35
2018-03-14T00:25:17.368Z,5.25
2018-03-14T00:27:46.387Z,5.57
2018-03-14T00:30:14.668Z,5.62
2018-03-14T00:32:42.920Z,5.62
2018-03-14T00:35:11.171Z,5.69
2018-03-14T00:37:40.212Z,5.61
2018-03-14T00:40:08.507Z,5.61
2018-03-14T00:42:36.771Z,5.51
2018-03-14T00:45:05.079Z,5.49
2018-03-14T00:47:33.411Z,5.59
2018-03-14T00:50:01.665Z,5.46
2018-03-14T00:52:30.713Z,5.42
2018-03-14T00:54:58.986Z,5.41
2018-03-14T00:57:27.275Z,5.50
2018-03-14T00:59:56.300Z,5.54
2018-03-14T01:02:25.348Z,5.55
2018-03-14T01:04:53.603Z,5.31
2018-03-14T01:07:21.861Z,5.53
2018-03-14T01:09:50.140Z,5.40
2018-03-14T01:12:18.413Z,5.53
2018-03-14T01:14:46.669Z,5.42
2018-03-14T01:17:15.720Z,5.39
2018-03-14T01:19:43.983Z,5.39
2018-03-14T01:22:12.245Z,5.39
2018-03-14T01:24:40.516Z,5.43
2018-03-14T01:27:08.781Z,5.32
2018-03-14T01:29:37.048Z,5.42
2018-03-14T01:32:05.319Z,5.23
2018-03-14T01:34:34.332Z,5.19
2018-03-14T01:37:02.688Z,5.30
2018-03-14T01:39:31.717Z,5.33
2018-03-14T01:41:59.976Z,5.19
2018-03-14T01:44:28.249Z,5.24
2018-03-14T01:46:56.519Z,5.48
2018-03-14T01:49:25.640Z,5.39
2018-03-14T01:51:53.914Z,5.36
2018-03-14T01:54:22.175Z,5.34
2018-03-14T01:56:50.432Z,5.21
2018-03-14T01:59:19.470Z,5.26
2018-03-14T02:01:49.152Z,5.29
2018-03-14T02:04:17.416Z,5.12
2018-03-14T02:06:46.455Z,5.32
2018-03-14T02:09:14.716Z,5.38
2018-03-14T02:11:42.979Z,5.44
2018-03-14T02:14:11.250Z,5.01
2018-03-14T02:16:39.563Z,5.22
2018-03-14T02:19:07.819Z,5.38
2018-03-14T02:21:36.093Z,5.25
2018-03-14T02:24:04.343Z,5.29
2018-03-14T02:26:33.375Z,5.50
2018-03-14T02:29:01.648Z,5.52
2018-03-14T02:31:29.912Z,5.57
2018-03-14T02:33:58.167Z,5.62
2018-03-14T02:39:40.175Z,5.70
2018-03-14T02:42:09.225Z,5.61
2018-03-14T02:44:37.480Z,5.64
2018-03-14T02:47:05.736Z,5.68
2018-03-14T02:49:34.009Z,5.52
2018-03-14T02:52:03.038Z,5.55
2018-03-14T02:54:31.301Z,5.56
2018-03-14T02:56:59.558Z,5.56
2018-03-14T02:59:27.812Z,5.71
2018-03-14T03:01:56.848Z,5.64
2018-03-14T03:04:25.113Z,5.63
2018-03-14T03:06:53.374Z,5.34
2018-03-14T03:09:22.391Z,5.46
2018-03-14T03:11:50.669Z,5.34
2018-03-14T03:14:18.911Z,5.36
2018-03-14T03:16:49.166Z,5.17
2018-03-14T03:19:17.437Z,5.19
2018-03-14T03:21:45.690Z,5.21
2018-03-14T03:24:14.708Z,5.17
2018-03-14T03:26:42.986Z,5.23
2018-03-14T03:29:11.245Z,5.02
2018-03-14T03:31:40.288Z,5.17
2018-03-14T03:34:08.540Z,5.13
2018-03-14T03:36:36.787Z,5.24
2018-03-14T03:39:05.832Z,5.21
2018-03-14T03:41:34.104Z,4.98
2018-03-14T03:44:02.355Z,5.09
2018-03-14T03:46:30.628Z,5.27
2018-03-14T03:48:58.889Z,5.19
2018-03-14T03:51:27.140Z,5.38
2018-03-14T03:53:55.408Z,5.39
2018-03-14T03:56:25.157Z,5.19
2018-03-14T03:58:53.424Z,5.23
2018-03-14T04:01:22.451Z,5.30
2018-03-14T04:03:50.705Z,5.28
2018-03-14T04:06:18.983Z,5.13
2018-03-14T04:08:47.241Z,5.24
2018-03-14T04:11:16.256Z,5.16
2018-03-14T04:13:44.612Z,5.29
2018-03-14T04:16:13.620Z,5.26
2018-03-14T04:18:41.917Z,5.44
2018-03-14T04:21:10.161Z,5.36
2018-03-14T04:23:39.196Z,5.37
2018-03-14T04:26:07.554Z,5.25
2018-03-14T04:28:35.812Z,5.30
2018-03-14T04:31:04.076Z,5.29
2018-03-14T04:33:33.087Z,5.27
2018-03-14T04:36:01.336Z,5.08
2018-03-14T04:38:30.437Z,5.26
2018-03-14T04:40:58.683Z,5.23
2018-03-14T04:43:27.022Z,5.28
2018-03-14T04:45:55.296Z,5.19
2018-03-14T04:48:23.559Z,5.31
2018-03-14T04:50:52.008Z,4.99
2018-03-14T04:53:20.296Z,4.79
2018-03-14T04:55:49.303Z,4.89
2018-03-14T04:58:17.576Z,4.88
2018-03-14T05:00:46.630Z,5.06
2018-03-14T05:03:14.884Z,5.08
2018-03-14T05:05:43.143Z,5.11
2018-03-14T05:08:11.400Z,4.86
2018-03-14T05:10:39.647Z,4.92
2018-03-14T05:13:07.908Z,5.11
2018-03-14T05:15:36.168Z,5.31
2018-03-14T05:18:04.525Z,5.43
2018-03-14T05:20:32.792Z,5.60
2018-03-14T05:23:01.048Z,5.67
2018-03-14T05:25:30.069Z,5.77
2018-03-14T05:27:58.336Z,5.86
2018-03-14T05:30:26.623Z,5.89
2018-03-14T05:32:54.883Z,5.85
2018-03-14T05:35:23.154Z,5.79
2018-03-14T05:37:52.206Z,5.90
2018-03-14T05:40:20.499Z,5.91
2018-03-14T05:42:48.760Z,5.82
2018-03-14T05:45:17.029Z,5.71
2018-03-14T05:47:45.280Z,5.84
2018-03-14T05:50:13.528Z,5.79
2018-03-14T05:52:41.835Z,5.74
2018-03-14T05:55:10.088Z,5.62
2018-03-14T05:57:38.347Z,5.71
2018-03-14T06:00:07.380Z,5.76
2018-03-14T06:02:35.648Z,5.87
2018-03-14T06:05:03.895Z,5.96
2018-03-14T06:07:33.009Z,5.97
2018-03-14T06:10:01.260Z,5.84
2018-03-14T06:12:30.305Z,5.87
2018-03-14T06:14:58.576Z,5.98
2018-03-14T06:17:26.852Z,5.87
2018-03-14T06:19:55.103Z,5.49
2018-03-14T06:22:23.351Z,5.44
2018-03-14T06:24:52.387Z,5.31
2018-03-14T06:27:20.640Z,5.29
2018-03-14T06:29:48.917Z,5.39
2018-03-14T06:32:17.949Z,5.30
2018-03-14T06:34:46.192Z,5.30
2018-03-14T06:37:14.436Z,5.31
2018-03-14T06:39:42.703Z,5.41
2018-03-14T06:42:10.959Z,5.42
2018-03-14T06:44:39.220Z,5.55
2018-03-14T06:47:07.527Z,5.65
2018-03-14T06:49:35.827Z,5.69
2018-03-14T06:52:04.859Z,5.59
2018-03-14T06:54:33.123Z,5.76
2018-03-14T06:57:01.391Z,5.93
2018-03-14T06:59:47.563Z,5.89
2018-03-14T07:05:44.963Z,5.90
2018-03-14T07:08:13.216Z,5.59
2018-03-14T07:10:42.227Z,5.69
2018-03-14T07:13:10.492Z,5.80
2018-03-14T07:15:39.531Z,5.82
2018-03-14T07:18:07.782Z,5.95
2018-03-14T07:20:36.051Z,6.10
2018-03-14T07:23:04.325Z,6.24
2018-03-14T07:25:32.578Z,6.34
2018-03-14T07:28:00.881Z,6.45
2018-03-14T07:30:29.888Z,6.45
2018-03-14T07:32:58.152Z,6.48
2018-03-14T07:35:26.408Z,6.56
2018-03-14T07:37:55.432Z,6.50
2018-03-14T07:40:23.694Z,6.64
2018-03-14T07:42:51.956Z,6.81
2018-03-14T07:45:20.971Z,6.94
2018-03-14T07:47:49.240Z,7.03
2018-03-14T07:50:17.488Z,7.14
2018-03-14T07:52:45.811Z,7.16
2018-03-14T07:55:14.071Z,6.90
2018-03-14T07:57:42.359Z,6.78
2018-03-14T08:00:10.613Z,6.78
2018-03-14T08:02:39.652Z,6.94
2018-03-14T08:05:07.904Z,6.96
2018-03-14T08:07:36.176Z,7.05
2018-03-14T08:10:04.428Z,7.08
2018-03-14T08:12:33.452Z,7.04
2018-03-14T08:15:01.715Z,7.03
2018-03-14T08:17:29.979Z,6.95
2018-03-14T08:19:59.099Z,7.09
2018-03-14T08:22:27.373Z,7.09
2018-03-14T08:24:55.623Z,7.21
2018-03-14T08:27:24.673Z,7.36
2018-03-14T08:29:52.925Z,7.27
2018-03-14T08:32:21.200Z,7.22
2018-03-14T08:34:49.467Z,7.36
2018-03-14T08:37:17.734Z,7.27
2018-03-14T08:39:46.022Z,7.53
2018-03-14T08:42:14.287Z,7.66
2018-03-14T08:44:42.539Z,7.77
2018-03-14T08:47:11.576Z,7.48
2018-03-14T08:49:39.824Z,6.99
2018-03-14T08:52:08.084Z,6.90
2018-03-14T08:54:37.173Z,7.09
2018-03-14T08:57:05.433Z,7.11
2018-03-14T08:59:33.751Z,7.10
2018-03-14T09:02:01.969Z,7.26
2018-03-14T09:04:30.986Z,7.33
2018-03-14T09:06:59.251Z,7.37
2018-03-14T09:09:27.508Z,7.52
2018-03-14T09:11:55.771Z,7.31
2018-03-14T09:14:24.048Z,7.53
2018-03-14T09:16:53.551Z,7.53
2018-03-14T09:19:21.802Z,7.62
2018-03-14T09:21:50.066Z,7.90
2018-03-14T09:24:19.109Z,7.85
2018-03-14T09:26:47.367Z,7.95
2018-03-14T09:29:15.645Z,8.21
2018-03-14T09:31:43.911Z,8.41
2018-03-14T09:34:12.156Z,8.57
2018-03-14T09:36:41.185Z,8.41
2018-03-14T09:39:09.443Z,8.63
2018-03-14T09:41:37.721Z,8.82
2018-03-14T09:44:06.740Z,8.96
2018-03-14T09:46:34.991Z,8.80
2018-03-14T09:49:03.292Z,8.78
2018-03-14T09:51:31.535Z,8.72
2018-03-14T09:53:59.820Z,8.60
2018-03-14T09:56:28.071Z,8.47
2018-03-14T09:58:57.102Z,8.58
2018-03-14T10:01:25.365Z,8.60
2018-03-14T10:03:53.749Z,8.03
2018-03-14T10:06:21.972Z,8.21
2018-03-14T10:08:50.220Z,8.24
2018-03-14T10:11:18.497Z,8.46
2018-03-14T10:13:46.751Z,8.26
2018-03-14T10:16:15.016Z,8.37
2018-03-14T10:18:44.054Z,8.44
2018-03-14T10:21:12.319Z,8.36
2018-03-14T10:23:40.576Z,8.22
2018-03-14T10:26:08.844Z,8.31
2018-03-14T10:28:37.100Z,8.36
2018-03-14T10:31:06.124Z,8.43
2018-03-14T10:33:34.403Z,8.37
2018-03-14T10:36:02.660Z,8.58
2018-03-14T10:38:31.690Z,8.66
2018-03-14T10:40:59.948Z,8.60
2018-03-14T10:43:28.212Z,8.91
2018-03-14T10:45:56.460Z,8.90
2018-03-14T10:48:25.492Z,8.92
2018-03-14T10:50:53.780Z,8.92
2018-03-14T10:53:22.041Z,9.12
2018-03-14T10:55:50.316Z,9.13
2018-03-14T10:58:18.572Z,9.14
2018-03-14T11:00:53.100Z,8.85
2018-03-14T11:03:21.350Z,9.15
2018-03-14T11:05:49.629Z,9.36
2018-03-14T11:08:17.956Z,9.54
2018-03-14T11:10:46.202Z,9.73
2018-03-14T11:13:15.237Z,9.64
2018-03-14T11:15:43.493Z,9.81
2018-03-14T11:18:11.799Z,9.68
2018-03-14T11:20:40.027Z,9.97
2018-03-14T11:23:09.071Z,10.16
2018-03-14T11:25:37.375Z,10.36
2018-03-14T11:28:05.664Z,10.30
2018-03-14T11:30:33.896Z,9.90
2018-03-14T11:33:02.158Z,9.75
2018-03-14T11:35:30.420Z,10.02
2018-03-14T11:37:58.681Z,10.33
2018-03-14T11:40:26.945Z,10.34
2018-03-14T11:42:55.976Z,9.33
2018-03-14T11:45:24.231Z,8.99
2018-03-14T11:47:52.548Z,9.25
2018-03-14T11:50:20.800Z,10.02
2018-03-14T11:52:49.055Z,9.97
2018-03-14T11:55:17.324Z,10.34
2018-03-14T11:57:45.588Z,10.63
2018-03-14T12:00:14.629Z,10.46
2018-03-14T12:02:42.905Z,10.51
2018-03-14T12:05:11.180Z,10.44
2018-03-14T12:07:39.488Z,10.40
2018-03-14T12:10:07.769Z,10.33
2018-03-14T12:12:36.044Z,10.39
2018-03-14T12:15:04.308Z,10.89
2018-03-14T12:17:32.586Z,11.03
2018-03-14T12:20:00.860Z,10.99
2018-03-14T12:22:31.876Z,10.40
2018-03-14T12:25:00.163Z,10.03
2018-03-14T12:27:28.428Z,10.35
2018-03-14T12:29:56.726Z,10.71
2018-03-14T12:32:24.987Z,10.94
2018-03-14T12:34:53.255Z,11.15
2018-03-14T12:37:21.524Z,11.27
2018-03-14T12:39:49.784Z,11.47
2018-03-14T12:42:18.068Z,11.44
2018-03-14T12:44:46.329Z,11.78
2018-03-14T12:47:15.368Z,12.25
2018-03-14T12:49:43.621Z,12.81
2018-03-14T12:52:11.877Z,12.73
2018-03-14T12:54:40.146Z,12.84
2018-03-14T12:57:09.237Z,11.97
2018-03-14T12:59:37.460Z,12.53
2018-03-14T13:02:05.723Z,12.67
2018-03-14T13:04:33.996Z,13.35
2018-03-14T13:07:02.264Z,12.95
2018-03-14T13:09:30.535Z,12.85
2018-03-14T13:12:00.264Z,13.28
2018-03-14T13:14:28.574Z,13.84
2018-03-14T13:16:56.830Z,13.56
2018-03-14T13:19:25.104Z,12.96
2018-03-14T13:21:53.355Z,13.06
2018-03-14T13:24:21.636Z,13.62
2018-03-14T13:26:49.888Z,14.07
2018-03-14T13:29:18.934Z,15.20
2018-03-14T13:31:47.186Z,15.74
2018-03-14T13:34:15.464Z,16.22
2018-03-14T13:36:43.734Z,17.18
2018-03-14T13:39:12.001Z,16.00
2018-03-14T13:41:40.291Z,16.63
2018-03-14T13:44:08.553Z,17.00
2018-03-14T13:46:36.818Z,17.01
2018-03-14T13:49:05.075Z,17.01
2018-03-14T13:51:34.098Z,17.55
2018-03-14T13:54:02.367Z,18.13
2018-03-14T13:56:30.630Z,18.56
2018-03-14T13:58:59.746Z,16.76
2018-03-14T14:01:27.952Z,15.78
2018-03-14T14:03:56.313Z,15.53
2018-03-14T14:06:24.592Z,15.12
2018-03-14T14:08:52.859Z,14.30
2018-03-14T14:11:21.128Z,14.47
2018-03-14T14:13:49.459Z,13.89
2018-03-14T14:16:17.743Z,13.62
2018-03-14T14:18:46.008Z,13.26
2018-03-14T14:21:14.289Z,13.32
2018-03-14T14:23:42.557Z,12.85
2018-03-14T14:26:10.833Z,12.71
2018-03-14T14:28:39.097Z,12.40
2018-03-14T14:31:07.353Z,12.35
2018-03-14T14:33:35.628Z,12.19
2018-03-14T14:36:03.879Z,11.45
2018-03-14T14:38:32.172Z,10.77
2018-03-14T14:41:00.424Z,10.34
2018-03-14T14:43:28.687Z,10.46
2018-03-14T14:45:57.729Z,10.76
2018-03-14T14:48:25.993Z,11.22
2018-03-14T14:50:54.264Z,11.42
2018-03-14T14:53:22.528Z,11.49
2018-03-14T14:55:50.785Z,10.94
2018-03-14T14:58:19.828Z,11.39
2018-03-14T15:00:48.113Z,11.32
2018-03-14T15:03:16.388Z,12.07
2018-03-14T15:05:44.647Z,12.01
2018-03-14T15:08:12.915Z,12.71
2018-03-14T15:10:41.200Z,13.27
2018-03-14T15:13:09.461Z,14.42
2018-03-14T15:15:37.748Z,15.31
2018-03-14T15:18:06.013Z,16.07
2018-03-14T15:20:34.284Z,16.40
2018-03-14T15:23:02.569Z,17.35
2018-03-14T15:25:30.836Z,18.31
2018-03-14T15:27:59.145Z,19.15
2018-03-14T15:30:27.405Z,19.74
2018-03-14T15:32:55.680Z,19.54
2018-03-14T15:35:23.940Z,19.51
2018-03-14T15:37:52.218Z,19.03
2018-03-14T15:40:20.490Z,20.16
2018-03-14T15:42:48.767Z,20.48
2018-03-14T15:45:17.028Z,21.12
2018-03-14T15:47:46.080Z,21.61
2018-03-14T15:50:14.339Z,21.63
2018-03-14T15:52:42.711Z,21.54
2018-03-14T15:55:10.979Z,21.10
2018-03-14T15:57:39.274Z,21.50
2018-03-14T16:00:07.576Z,21.83
2018-03-14T16:02:35.839Z,21.64
2018-03-14T16:05:04.096Z,21.17
2018-03-14T16:07:32.377Z,20.71
2018-03-14T16:10:00.632Z,19.84
2018-03-14T16:12:28.909Z,19.80
2018-03-14T16:14:57.175Z,19.93
2018-03-14T16:17:25.435Z,19.90
2018-03-14T16:19:54.503Z,19.22
2018-03-14T16:22:22.767Z,18.37
2018-03-14T16:24:51.049Z,18.25
2018-03-14T16:27:20.080Z,18.50
2018-03-14T16:29:49.115Z,18.25
2018-03-14T16:32:17.390Z,17.32
2018-03-14T16:34:45.658Z,17.33
2018-03-14T16:37:13.975Z,16.48
2018-03-14T16:39:42.265Z,15.99
2018-03-14T16:42:11.319Z,15.63
2018-03-14T16:44:39.630Z,15.02
2018-03-14T16:47:08.635Z,14.57
2018-03-14T16:49:37.668Z,14.16
2018-03-14T16:52:05.942Z,13.63
2018-03-14T16:54:34.222Z,13.13
2018-03-14T16:57:04.288Z,12.89
2018-03-14T16:59:32.560Z,12.61
2018-03-14T17:02:00.861Z,12.29
2018-03-14T17:04:29.889Z,11.80
2018-03-14T17:06:58.192Z,11.45
2018-03-14T17:09:26.478Z,11.28
2018-03-14T17:11:54.751Z,11.12
2018-03-14T17:14:27.281Z,10.85
2018-03-14T17:16:51.659Z,10.56
2018-03-14T17:19:20.059Z,10.18
2018-03-14T17:21:48.418Z,9.87
2018-03-14T17:24:16.765Z,9.90
2018-03-14T17:26:45.815Z,9.85
2018-03-14T17:29:14.200Z,9.76
2018-03-14T17:31:42.659Z,9.69
2018-03-14T17:34:11.229Z,9.64
2018-03-14T17:36:40.060Z,9.49
2018-03-14T17:39:09.563Z,9.39
2018-03-14T17:41:39.328Z,9.43
2018-03-14T17:44:08.463Z,9.33
2018-03-14T17:46:37.760Z,9.35
2018-03-14T17:49:06.984Z,9.19
2018-03-14T17:51:36.246Z,9.13
2018-03-14T17:54:05.610Z,9.18
2018-03-14T17:56:34.803Z,9.16
2018-03-14T17:59:03.929Z,9.19
2018-03-14T18:01:32.986Z,9.15
2018-03-14T18:04:01.929Z,9.06
2018-03-14T18:06:31.960Z,8.71
2018-03-14T18:09:01.234Z,8.78
2018-03-14T18:11:31.987Z,8.77
2018-03-14T18:14:01.189Z,8.76
2018-03-14T18:16:30.318Z,8.71
2018-03-14T18:18:59.612Z,8.64
2018-03-14T18:21:28.994Z,8.64
2018-03-14T18:23:58.388Z,8.54
2018-03-14T18:26:27.712Z,8.57
2018-03-14T18:28:57.013Z,8.53
2018-03-14T18:31:26.403Z,8.42
2018-03-14T18:33:55.670Z,8.56
2018-03-14T18:36:25.832Z,8.58
2018-03-14T18:38:55.131Z,8.66
2018-03-14T18:41:24.588Z,8.61
2018-03-14T18:43:54.701Z,8.53
2018-03-14T18:46:24.855Z,8.40
2018-03-14T18:48:54.269Z,8.34
2018-03-14T18:51:23.595Z,8.39
2018-03-14T18:53:53.036Z,8.24
2018-03-14T18:56:23.145Z,8.31
2018-03-14T18:58:53.324Z,8.11
2018-03-14T19:01:22.725Z,8.04
2018-03-14T19:03:52.152Z,8.03
2018-03-14T19:06:21.433Z,8.07
2018-03-14T19:08:50.946Z,8.09
2018-03-14T19:11:21.077Z,8.01
2018-03-14T19:13:50.457Z,7.90
2018-03-14T19:16:19.935Z,7.82
2018-03-14T19:18:49.568Z,7.71
2018-03-14T19:21:18.958Z,7.63
2018-03-14T19:23:48.348Z,7.50
2018-03-14T19:26:17.700Z,6.70
2018-03-14T19:28:47.154Z,6.44
2018-03-14T19:31:16.592Z,6.67
2018-03-14T19:33:46.020Z,6.83
2018-03-14T19:36:15.430Z,6.94
2018-03-14T19:38:46.193Z,6.79
2018-03-14T19:41:15.464Z,6.85
2018-03-14T19:43:44.906Z,6.75
2018-03-14T19:46:14.299Z,6.79
2018-03-14T19:48:43.850Z,6.66
2018-03-14T19:51:13.422Z,6.65
2018-03-14T19:53:42.761Z,6.51
2018-03-14T19:56:12.216Z,6.55
2018-03-14T19:58:41.608Z,6.55
2018-03-14T20:01:11.091Z,6.64
2018-03-14T20:03:41.413Z,6.70
2018-03-14T20:06:10.708Z,6.64
2018-03-14T20:08:40.635Z,6.56
2018-03-14T20:11:10.092Z,6.52
2018-03-14T20:13:40.230Z,6.56
2018-03-14T20:16:10.022Z,6.54
2018-03-14T20:18:40.230Z,6.57
2018-03-14T20:21:09.662Z,6.45
2018-03-14T20:23:39.843Z,6.34
2018-03-14T20:26:09.399Z,6.23
2018-03-14T20:28:38.837Z,5.95
2018-03-14T20:31:08.257Z,5.83
2018-03-14T20:33:37.647Z,5.69
2018-03-14T20:36:07.670Z,5.74
2018-03-14T20:38:37.927Z,5.62
2018-03-14T20:41:08.129Z,5.33
2018-03-14T20:43:38.074Z,5.17
2018-03-14T20:46:08.827Z,4.84
2018-03-14T20:48:39.443Z,4.94
2018-03-14T20:51:10.182Z,5.06
2018-03-14T20:53:40.064Z,4.96
2018-03-14T20:56:10.662Z,4.85
2018-03-14T20:58:40.591Z,4.50
2018-03-14T21:01:10.564Z,4.42
2018-03-14T21:03:41.210Z,4.56
2018-03-14T21:06:11.920Z,4.67
2018-03-14T21:08:41.824Z,4.67
2018-03-14T21:11:11.895Z,4.20
2018-03-14T21:13:42.506Z,4.26
2018-03-14T21:16:13.253Z,4.38
2018-03-14T21:18:43.908Z,4.34
2018-03-14T21:21:13.791Z,4.29
2018-03-14T21:23:43.589Z,4.18
2018-03-14T21:26:14.474Z,3.92
2018-03-14T21:28:44.394Z,3.89
2018-03-14T21:31:14.300Z,3.95
2018-03-14T21:33:44.191Z,4.02
2018-03-14T21:36:14.944Z,3.81
2018-03-14T21:38:44.740Z,3.98
2018-03-14T21:41:14.670Z,4.05
2018-03-14T21:43:44.465Z,4.05
2018-03-14T21:46:14.294Z,3.86
2018-03-14T21:48:44.461Z,3.88
2018-03-14T21:51:14.256Z,3.88
2018-03-14T21:53:44.281Z,3.79
2018-03-14T21:56:14.226Z,3.78
2018-03-14T21:58:44.988Z,3.80
2018-03-14T22:01:14.940Z,3.84
2018-03-14T22:03:44.811Z,3.77
2018-03-14T22:06:14.750Z,3.59
2018-03-14T22:08:44.926Z,3.57
2018-03-14T22:11:15.491Z,3.38
2018-03-14T22:13:45.048Z,3.27
2018-03-14T22:16:15.665Z,3.33
2018-03-14T22:18:45.629Z,3.35
2018-03-14T22:21:15.763Z,3.20
2018-03-14T22:23:45.254Z,3.33
2018-03-14T22:26:14.701Z,3.12
2018-03-14T22:28:43.536Z,2.99
2018-03-14T22:31:11.925Z,3.08
2018-03-14T22:33:40.247Z,3.16
2018-03-14T22:36:10.034Z,3.19
2018-03-14T22:38:38.551Z,2.88
2018-03-14T22:41:07.588Z,2.91
2018-03-14T22:43:35.842Z,3.07
2018-03-14T22:46:04.153Z,3.07
2018-03-14T22:48:32.427Z,3.25
2018-03-14T22:51:00.700Z,3.09
2018-03-14T22:53:28.957Z,3.14
2018-03-14T22:55:57.224Z,3.07
2018-03-14T22:58:25.481Z,2.85
2018-03-14T23:00:54.496Z,2.84
2018-03-14T23:03:22.767Z,2.96
2018-03-14T23:05:51.032Z,2.94
2018-03-14T23:08:20.050Z,2.99
2018-03-14T23:10:48.336Z,2.69
2018-03-14T23:13:16.592Z,2.40
2018-03-14T23:15:44.855Z,2.03
2018-03-14T23:18:13.975Z,2.10
2018-03-14T23:20:42.215Z,2.09
2018-03-14T23:23:11.348Z,1.99
2018-03-14T23:25:39.619Z,2.14
2018-03-14T23:28:07.887Z,2.11
2018-03-14T23:30:36.132Z,1.89
2018-03-14T23:33:05.169Z,1.82
2018-03-14T23:35:33.439Z,1.94
2018-03-14T23:38:01.688Z,2.20
2018-03-14T23:40:30.724Z,2.30
2018-03-14T23:42:58.977Z,2.40
2018-03-14T23:45:27.228Z,2.32
2018-03-14T23:47:56.268Z,2.28
2018-03-14T23:50:24.520Z,2.25
2018-03-14T23:52:52.792Z,2.23
2018-03-14T23:55:21.064Z,2.08
2018-03-14T23:57:49.341Z,2.08
